Time;durP1;ratioP1;P1;durP2;ratioP2;P2;SDS_P1;SDS_P2;PMS_P1;PMS_P2;Temp;Humidity;BMP_temperature;BMP_pressure;BME280_temperature;BME280_humidity;BME280_pressure;Samples;Min_cycle;Max_cycle;Signal;HPM_P1;HPM_P2
2021/05/08 00:01:52;;;;;;;10.33;9.43;;;3.40;99.90;;;;;;5081476;28;20447;-80
2021/05/08 00:04:18;;;;;;;10.50;9.60;;;3.40;99.90;;;;;;5072194;28;20841;-80
2021/05/08 00:06:45;;;;;;;10.23;9.33;;;3.40;99.90;;;;;;5079939;28;20454;-80
2021/05/08 00:09:13;;;;;;;9.90;9.10;;;3.40;99.90;;;;;;5083677;28;20479;-80
2021/05/08 00:11:41;;;;;;;10.53;9.53;;;3.30;99.90;;;;;;5075785;28;20433;-80
2021/05/08 00:14:08;;;;;;;9.63;8.83;;;3.30;99.90;;;;;;5079544;28;20625;-80
2021/05/08 00:16:35;;;;;;;10.70;9.80;;;3.30;99.90;;;;;;5077308;28;20468;-80
2021/05/08 00:19:02;;;;;;;10.20;9.40;;;3.20;99.90;;;;;;5083446;28;20453;-80
2021/05/08 00:21:29;;;;;;;10.20;9.30;;;3.30;99.90;;;;;;5072233;28;20833;-80
2021/05/08 00:23:55;;;;;;;10.23;9.33;;;3.20;99.90;;;;;;5080793;28;20472;-80
2021/05/08 00:26:21;;;;;;;10.20;9.20;;;3.20;99.90;;;;;;5089287;28;20443;-80
2021/05/08 00:28:49;;;;;;;10.60;9.50;;;3.20;99.90;;;;;;5081216;28;20937;-80
2021/05/08 00:31:15;;;;;;;10.43;9.53;;;3.20;99.90;;;;;;5084012;28;20440;-80
2021/05/08 00:33:41;;;;;;;9.57;8.77;;;3.10;99.90;;;;;;5074432;28;20872;-80
2021/05/08 00:36:09;;;;;;;9.13;8.43;;;3.10;99.90;;;;;;5080737;28;20441;-80
2021/05/08 00:38:35;;;;;;;9.40;8.60;;;3.10;99.90;;;;;;5079175;28;20449;-80
2021/05/08 00:41:01;;;;;;;9.73;8.93;;;3.10;99.90;;;;;;5076565;28;20462;-80
2021/05/08 00:43:28;;;;;;;10.20;9.00;;;3.00;99.90;;;;;;5081005;28;20496;-80
2021/05/08 00:45:56;;;;;;;9.60;8.80;;;3.00;99.90;;;;;;5082141;28;20425;-80
2021/05/08 00:48:23;;;;;;;9.30;8.60;;;2.90;99.90;;;;;;5082291;28;20512;-80
2021/05/08 00:50:51;;;;;;;9.63;8.83;;;2.90;99.90;;;;;;5081750;28;21000;-80
2021/05/08 00:53:20;;;;;;;9.90;9.10;;;2.90;99.90;;;;;;5083177;28;21018;-80
2021/05/08 00:55:47;;;;;;;9.90;9.20;;;2.90;99.90;;;;;;5074354;28;20495;-80
2021/05/08 00:58:14;;;;;;;10.43;9.53;;;2.90;99.90;;;;;;5082690;28;20444;-80
2021/05/08 01:00:41;;;;;;;10.33;9.53;;;2.80;99.90;;;;;;5082478;28;20475;-80
2021/05/08 01:03:09;;;;;;;9.60;8.70;;;2.80;99.90;;;;;;5082406;28;20551;-79
2021/05/08 01:05:37;;;;;;;9.57;8.87;;;2.80;99.90;;;;;;5074775;28;20981;-80
2021/05/08 01:08:10;;;;;;;9.77;8.97;;;2.70;99.90;;;;;;5073971;28;20485;-80
2021/05/08 01:10:37;;;;;;;9.40;8.70;;;2.60;99.90;;;;;;5082240;28;20464;-80
2021/05/08 01:13:06;;;;;;;9.83;9.03;;;2.60;99.90;;;;;;5075548;28;20487;-79
2021/05/08 01:15:32;;;;;;;9.90;9.10;;;2.60;99.90;;;;;;5075690;28;20437;-79
2021/05/08 01:18:01;;;;;;;10.30;9.30;;;2.50;99.90;;;;;;5081184;28;20460;-79
2021/05/08 01:20:29;;;;;;;10.43;9.47;;;2.50;99.90;;;;;;5085995;28;20464;-79
2021/05/08 01:23:00;;;;;;;10.27;9.47;;;2.50;99.90;;;;;;5081433;28;20987;-79
2021/05/08 01:25:28;;;;;;;10.77;9.77;;;2.50;99.90;;;;;;5083519;28;20437;-79
2021/05/08 01:27:57;;;;;;;10.27;9.47;;;2.50;99.90;;;;;;5072393;28;20445;-79
2021/05/08 01:30:28;;;;;;;10.47;9.47;;;2.50;99.90;;;;;;5084534;28;20465;-79
2021/05/08 01:32:55;;;;;;;12.17;9.53;;;2.50;99.90;;;;;;5076921;28;20950;-79
2021/05/08 01:35:23;;;;;;;10.00;9.20;;;2.50;99.90;;;;;;5072448;28;20449;-79
2021/05/08 01:37:49;;;;;;;11.00;10.03;;;2.40;99.90;;;;;;5087142;28;20457;-79
2021/05/08 01:40:17;;;;;;;10.40;9.60;;;2.40;99.90;;;;;;5079787;28;20461;-79
2021/05/08 01:42:50;;;;;;;10.90;10.00;;;2.40;99.90;;;;;;5080053;28;20466;-79
2021/05/08 01:45:18;;;;;;;10.73;9.83;;;2.40;99.90;;;;;;5077529;28;20772;-79
2021/05/08 01:47:46;;;;;;;10.17;9.40;;;2.30;99.90;;;;;;5073735;28;20445;-79
2021/05/08 01:50:14;;;;;;;10.83;10.00;;;2.30;99.90;;;;;;5077872;28;20598;-79
2021/05/08 01:52:42;;;;;;;10.50;9.60;;;2.30;99.90;;;;;;5082633;28;20454;-79
2021/05/08 01:55:11;;;;;;;10.87;9.87;;;2.30;99.90;;;;;;5082162;28;20449;-79
2021/05/08 01:57:40;;;;;;;10.30;9.50;;;2.20;99.90;;;;;;5078531;28;20456;-79
2021/05/08 02:00:13;;;;;;;10.90;9.90;;;2.20;99.90;;;;;;5080956;28;20528;-79
2021/05/08 02:02:44;;;;;;;11.83;10.70;;;2.20;99.90;;;;;;5082003;28;20466;-79
2021/05/08 02:05:12;;;;;;;11.33;10.30;;;2.20;99.90;;;;;;5075632;28;20829;-79
2021/05/08 02:07:39;;;;;;;10.30;9.50;;;2.20;99.90;;;;;;5082706;28;20881;-79
2021/05/08 02:10:07;;;;;;;13.33;10.40;;;2.20;99.90;;;;;;5074666;28;20456;-79
2021/05/08 02:12:37;;;;;;;10.80;9.90;;;2.20;99.90;;;;;;5075797;28;20484;-79
2021/05/08 02:15:06;;;;;;;11.10;10.20;;;2.20;99.90;;;;;;5081137;28;20509;-79
2021/05/08 02:17:33;;;;;;;11.63;10.33;;;2.10;99.90;;;;;;5083215;28;20491;-79
2021/05/08 02:19:59;;;;;;;10.83;10.00;;;2.10;99.90;;;;;;5081319;28;20530;-79
2021/05/08 02:22:26;;;;;;;11.27;10.10;;;2.10;99.90;;;;;;5080479;28;20443;-79
2021/05/08 02:24:52;;;;;;;10.77;9.87;;;2.00;99.90;;;;;;5076729;28;20929;-79
2021/05/08 02:27:19;;;;;;;11.67;10.53;;;2.00;99.90;;;;;;5095953;28;20432;-79
2021/05/08 02:29:45;;;;;;;11.57;10.50;;;2.00;99.90;;;;;;5076916;28;20933;-79
2021/05/08 02:32:12;;;;;;;11.40;10.30;;;2.00;99.90;;;;;;5085245;28;20493;-79
2021/05/08 02:34:39;;;;;;;10.40;9.50;;;2.00;99.90;;;;;;5081260;28;20476;-79
2021/05/08 02:37:05;;;;;;;11.77;10.67;;;1.90;99.90;;;;;;5084028;28;20457;-79
2021/05/08 02:39:32;;;;;;;10.53;9.83;;;1.90;99.90;;;;;;5094668;28;20958;-79
2021/05/08 02:41:59;;;;;;;11.63;10.53;;;1.90;99.90;;;;;;5082681;28;20461;-79
2021/05/08 02:44:25;;;;;;;11.53;10.20;;;1.90;99.90;;;;;;5078276;28;20541;-79
2021/05/08 02:46:52;;;;;;;11.30;10.30;;;1.90;99.90;;;;;;5081531;28;20532;-79
2021/05/08 02:49:19;;;;;;;11.53;10.53;;;1.90;99.90;;;;;;5082887;28;20502;-79
2021/05/08 02:51:45;;;;;;;10.60;9.80;;;1.80;99.90;;;;;;5083044;28;20459;-78
2021/05/08 02:54:12;;;;;;;11.60;10.60;;;1.80;99.90;;;;;;5084182;28;20516;-79
2021/05/08 02:56:38;;;;;;;12.73;11.53;;;1.80;99.90;;;;;;5079283;28;20458;-79
2021/05/08 02:59:05;;;;;;;10.80;10.00;;;1.90;99.90;;;;;;5069781;28;20567;-79
2021/05/08 03:01:31;;;;;;;11.20;10.30;;;1.90;99.90;;;;;;5077821;28;20453;-80
2021/05/08 03:03:58;;;;;;;10.93;10.07;;;1.80;99.90;;;;;;5075418;28;20467;-79
2021/05/08 03:06:25;;;;;;;11.50;10.50;;;1.80;99.90;;;;;;5074715;28;21682;-79
2021/05/08 03:08:51;;;;;;;10.97;10.17;;;1.80;99.90;;;;;;5073305;28;20450;-79
2021/05/08 03:11:18;;;;;;;12.33;11.13;;;1.70;99.90;;;;;;5082379;28;20850;-80
2021/05/08 03:13:47;;;;;;;11.50;10.60;;;1.70;99.90;;;;;;5088703;28;20437;-80
2021/05/08 03:16:13;;;;;;;11.67;10.57;;;1.70;99.90;;;;;;5083358;28;20452;-78
2021/05/08 03:18:42;;;;;;;11.17;10.27;;;1.70;99.90;;;;;;5087487;28;20460;-78
2021/05/08 03:21:09;;;;;;;11.20;10.30;;;1.70;99.90;;;;;;5089346;28;20451;-79
2021/05/08 03:23:36;;;;;;;11.33;10.40;;;1.70;99.90;;;;;;5077820;28;20563;-79
2021/05/08 03:26:03;;;;;;;11.20;10.30;;;1.70;99.90;;;;;;5076872;28;20453;-78
2021/05/08 03:28:29;;;;;;;11.37;10.37;;;1.60;99.90;;;;;;5075600;28;20481;-78
2021/05/08 03:30:58;;;;;;;11.00;10.10;;;1.50;99.90;;;;;;5075218;28;21002;-77
2021/05/08 03:33:24;;;;;;;10.83;9.93;;;1.50;99.90;;;;;;5076097;28;20456;-78
2021/05/08 03:35:51;;;;;;;11.93;10.83;;;1.50;99.90;;;;;;5082945;28;20472;-80
2021/05/08 03:38:18;;;;;;;11.63;10.63;;;1.50;99.90;;;;;;5079148;28;20444;-79
2021/05/08 03:40:46;;;;;;;11.47;10.47;;;1.50;99.90;;;;;;5076911;28;20457;-79
2021/05/08 03:43:12;;;;;;;11.70;10.50;;;1.40;99.90;;;;;;5076905;28;20474;-79
2021/05/08 03:45:38;;;;;;;12.17;11.07;;;1.40;99.90;;;;;;5073989;28;20449;-79
2021/05/08 03:48:06;;;;;;;12.03;10.83;;;1.40;99.90;;;;;;5078559;28;20472;-79
2021/05/08 03:50:32;;;;;;;12.90;11.80;;;1.40;99.90;;;;;;5081392;28;20444;-79
2021/05/08 03:52:58;;;;;;;12.80;11.50;;;1.50;99.90;;;;;;5079793;28;20491;-80
2021/05/08 03:55:25;;;;;;;11.97;11.07;;;1.50;99.90;;;;;;5077164;28;20995;-80
2021/05/08 03:57:52;;;;;;;12.53;11.40;;;1.50;99.90;;;;;;5079796;28;20432;-79
2021/05/08 04:00:19;;;;;;;12.93;11.70;;;1.50;99.90;;;;;;5072390;28;20984;-79
2021/05/08 04:02:45;;;;;;;11.97;11.03;;;1.50;99.90;;;;;;5075110;28;20953;-80
2021/05/08 04:05:12;;;;;;;12.87;11.37;;;1.60;99.90;;;;;;5077008;28;20460;-80
2021/05/08 04:07:38;;;;;;;12.87;11.77;;;1.70;99.90;;;;;;5070819;28;20445;-80
2021/05/08 04:10:05;;;;;;;13.50;12.17;;;1.80;99.90;;;;;;5077628;28;20459;-79
2021/05/08 04:12:32;;;;;;;15.50;11.60;;;1.90;99.90;;;;;;5070463;28;20452;-79
2021/05/08 04:14:59;;;;;;;13.10;11.87;;;2.00;99.90;;;;;;5073910;28;21036;-79
2021/05/08 04:17:25;;;;;;;11.27;10.27;;;2.00;99.90;;;;;;5075549;28;20791;-80
2021/05/08 04:19:52;;;;;;;12.03;11.13;;;2.00;99.90;;;;;;5083185;28;20989;-80
2021/05/08 04:22:18;;;;;;;12.10;10.17;;;2.10;99.90;;;;;;5077962;28;20467;-81
2021/05/08 04:24:44;;;;;;;12.90;11.77;;;2.20;99.90;;;;;;5075078;28;20469;-79
2021/05/08 04:27:11;;;;;;;12.70;11.50;;;2.30;99.90;;;;;;5076122;28;20527;-78
2021/05/08 04:29:37;;;;;;;12.17;11.27;;;2.30;99.90;;;;;;5070877;28;20469;-77
2021/05/08 04:32:05;;;;;;;13.20;11.97;;;2.30;99.90;;;;;;5077789;28;20465;-79
2021/05/08 04:34:31;;;;;;;12.60;11.60;;;2.50;99.90;;;;;;5076590;28;20859;-79
2021/05/08 04:37:01;;;;;;;12.83;11.47;;;2.50;99.90;;;;;;5075653;28;20887;-79
2021/05/08 04:39:27;;;;;;;12.23;11.27;;;2.60;99.90;;;;;;5083298;28;20462;-78
2021/05/08 04:41:54;;;;;;;12.20;11.20;;;2.70;99.90;;;;;;5073522;28;20447;-79
2021/05/08 04:44:20;;;;;;;11.87;11.03;;;2.70;99.90;;;;;;5082158;28;20520;-79
2021/05/08 04:46:48;;;;;;;11.13;10.23;;;2.80;99.90;;;;;;5076694;28;20464;-80
2021/05/08 04:49:16;;;;;;;12.53;11.37;;;2.90;99.90;;;;;;5073364;28;20474;-79
2021/05/08 04:51:42;;;;;;;11.40;10.43;;;3.00;99.90;;;;;;5082739;28;20666;-79
2021/05/08 04:54:09;;;;;;;10.53;9.63;;;3.20;99.90;;;;;;5075766;28;20913;-78
2021/05/08 04:56:35;;;;;;;10.73;9.83;;;3.30;99.90;;;;;;5074788;28;20801;-78
2021/05/08 05:01:55;;;;;;;10.57;9.67;;;3.60;99.90;;;;;;4956077;28;20475;-75
2021/05/08 05:04:23;;;;;;;11.20;10.17;;;3.70;99.90;;;;;;4961285;28;20496;-75
2021/05/08 05:06:49;;;;;;;9.70;8.70;;;3.90;99.90;;;;;;4945692;28;20439;-75
2021/05/08 05:09:15;;;;;;;10.67;9.77;;;4.40;99.90;;;;;;4962385;28;20441;-75
2021/05/08 05:11:42;;;;;;;10.17;9.10;;;4.90;99.90;;;;;;4949309;28;20652;-76
2021/05/08 05:14:08;;;;;;;11.10;10.20;;;5.30;99.90;;;;;;4955397;28;20450;-76
2021/05/08 05:16:34;;;;;;;11.30;10.40;;;5.90;99.90;;;;;;4944271;29;20238;-75
2021/05/08 05:19:00;;;;;;;11.00;10.20;;;6.30;99.90;;;;;;4942398;29;20253;-78
2021/05/08 05:21:28;;;;;;;7.07;4.60;;;6.50;99.90;;;;;;4944496;29;20223;-76
2021/05/08 05:23:54;;;;;;;7.80;7.07;;;6.60;99.90;;;;;;4944284;29;20246;-77
2021/05/08 05:26:20;;;;;;;10.77;9.40;;;6.90;99.90;;;;;;4960002;28;20216;-76
2021/05/08 05:28:47;;;;;;;11.33;10.30;;;7.20;99.90;;;;;;4936651;29;20209;-77
2021/05/08 05:31:14;;;;;;;11.07;10.17;;;7.40;99.90;;;;;;4942975;28;20220;-77
2021/05/08 05:33:40;;;;;;;10.50;9.60;;;7.80;99.90;;;;;;4938970;29;20201;-76
2021/05/08 05:36:07;;;;;;;10.17;9.37;;;8.10;99.90;;;;;;4958497;28;20206;-77
2021/05/08 05:38:34;;;;;;;9.50;8.70;;;8.50;99.90;;;;;;4932390;29;20595;-77
2021/05/08 05:41:00;;;;;;;9.27;8.47;;;9.10;99.90;;;;;;4943557;29;20234;-77
2021/05/08 05:43:26;;;;;;;5.70;5.20;;;9.40;99.90;;;;;;4942831;29;20588;-77
2021/05/08 05:45:53;;;;;;;5.87;5.43;;;9.90;99.90;;;;;;4947075;29;20210;-78
2021/05/08 05:48:20;;;;;;;10.23;9.43;;;10.00;99.90;;;;;;4945406;29;20191;-78
2021/05/08 05:50:47;;;;;;;10.00;9.20;;;9.80;99.90;;;;;;4942834;29;20222;-76
2021/05/08 05:53:14;;;;;;;10.40;9.40;;;9.60;99.90;;;;;;4933722;29;20195;-76
2021/05/08 05:55:41;;;;;;;9.30;8.50;;;9.40;99.90;;;;;;4939140;29;20203;-75
2021/05/08 05:58:07;;;;;;;9.73;8.97;;;9.30;99.90;;;;;;4949136;28;20301;-76
2021/05/08 06:00:33;;;;;;;9.50;8.70;;;9.10;99.90;;;;;;4950336;28;20241;-76
2021/05/08 06:03:00;;;;;;;9.40;8.60;;;9.00;99.90;;;;;;4940533;29;20206;-76
2021/05/08 06:05:26;;;;;;;9.43;8.73;;;8.80;99.90;;;;;;4938150;29;20572;-76
2021/05/08 06:07:52;;;;;;;9.87;9.07;;;8.80;99.90;;;;;;4951594;28;20689;-76
2021/05/08 06:10:19;;;;;;;9.60;8.83;;;8.70;99.90;;;;;;4938787;28;20238;-76
2021/05/08 06:12:46;;;;;;;9.17;8.57;;;8.80;99.90;;;;;;4940969;29;20257;-76
2021/05/08 06:15:13;;;;;;;9.50;8.80;;;8.90;99.90;;;;;;4949691;29;20562;-77
2021/05/08 06:17:40;;;;;;;9.50;8.80;;;8.90;99.90;;;;;;4943524;29;20632;-77
2021/05/08 06:20:08;;;;;;;9.20;8.50;;;9.00;99.90;;;;;;4947977;28;20282;-76
2021/05/08 06:22:34;;;;;;;9.67;8.87;;;9.10;99.90;;;;;;4947421;29;20664;-77
2021/05/08 06:25:01;;;;;;;9.43;8.60;;;9.00;99.90;;;;;;4950480;29;20211;-76
2021/05/08 06:27:27;;;;;;;9.10;8.50;;;9.00;99.90;;;;;;4947135;29;20268;-77
2021/05/08 06:29:54;;;;;;;9.13;8.43;;;9.20;99.90;;;;;;4950729;28;20229;-77
2021/05/08 06:32:21;;;;;;;9.13;8.30;;;9.30;99.90;;;;;;4949311;29;20228;-78
2021/05/08 06:34:48;;;;;;;9.43;8.60;;;9.70;99.90;;;;;;4957333;28;20199;-76
2021/05/08 06:37:15;;;;;;;9.10;8.43;;;9.90;99.90;;;;;;4957035;28;20285;-76
2021/05/08 06:39:41;;;;;;;8.60;8.00;;;10.40;99.90;;;;;;4952077;28;20239;-76
2021/05/08 06:42:08;;;;;;;9.60;8.90;;;10.50;99.90;;;;;;4937670;29;20203;-76
2021/05/08 06:44:34;;;;;;;8.90;8.20;;;10.80;99.90;;;;;;4937985;29;20223;-76
2021/05/08 06:47:01;;;;;;;9.27;8.50;;;10.90;99.90;;;;;;4944413;29;20496;-76
2021/05/08 06:49:28;;;;;;;8.90;8.13;;;11.00;99.90;;;;;;4943071;28;20216;-77
2021/05/08 06:51:54;;;;;;;9.40;8.70;;;11.30;99.90;;;;;;4955921;28;20200;-77
2021/05/08 06:54:20;;;;;;;9.30;8.50;;;11.50;99.90;;;;;;4965305;28;20203;-77
2021/05/08 06:56:47;;;;;;;7.20;6.50;;;11.60;99.90;;;;;;4939375;29;20200;-77
2021/05/08 06:59:13;;;;;;;6.73;6.13;;;12.10;99.90;;;;;;4965343;28;20237;-77
2021/05/08 07:01:39;;;;;;;6.70;6.10;;;12.40;99.90;;;;;;4944122;28;20202;-78
2021/05/08 07:04:06;;;;;;;6.90;6.20;;;12.70;99.90;;;;;;4949214;29;20218;-77
2021/05/08 07:06:33;;;;;;;6.23;5.67;;;12.80;99.90;;;;;;4944469;28;20657;-78
2021/05/08 07:09:00;;;;;;;6.40;5.80;;;12.80;99.90;;;;;;4942908;29;20202;-75
2021/05/08 07:11:26;;;;;;;6.30;5.70;;;13.10;99.90;;;;;;4950577;28;20293;-76
2021/05/08 07:13:52;;;;;;;6.20;5.63;;;13.60;99.90;;;;;;4941841;29;20206;-76
2021/05/08 07:16:19;;;;;;;9.07;8.33;;;13.80;99.90;;;;;;4961707;28;20214;-75
2021/05/08 07:18:45;;;;;;;8.90;8.20;;;14.00;99.90;;;;;;4941725;29;20209;-76
2021/05/08 07:21:12;;;;;;;9.90;9.10;;;13.80;99.90;;;;;;4952592;28;20640;-75
2021/05/08 07:23:38;;;;;;;8.23;7.63;;;13.50;99.90;;;;;;4942216;29;20223;-76
2021/05/08 07:26:05;;;;;;;8.80;8.20;;;13.90;99.90;;;;;;4946719;29;20583;-75
2021/05/08 07:28:31;;;;;;;8.23;7.63;;;14.60;99.90;;;;;;4959919;28;20207;-76
2021/05/08 07:30:58;;;;;;;8.83;8.23;;;15.10;99.90;;;;;;4941844;29;20218;-76
2021/05/08 07:33:24;;;;;;;9.13;8.53;;;15.40;99.90;;;;;;4964125;28;20268;-76
2021/05/08 07:35:52;;;;;;;9.90;9.10;;;15.70;99.90;;;;;;4948472;29;20198;-76
2021/05/08 07:38:19;;;;;;;8.70;8.10;;;15.40;99.90;;;;;;4948528;29;20307;-76
2021/05/08 07:40:49;;;;;;;8.87;8.17;;;15.20;99.90;;;;;;4952740;28;20213;-77
2021/05/08 07:43:18;;;;;;;8.77;8.00;;;15.40;99.90;;;;;;4953839;28;20223;-77
2021/05/08 07:45:44;;;;;;;9.17;8.37;;;15.50;99.90;;;;;;4952816;28;20211;-78
2021/05/08 07:48:11;;;;;;;8.87;8.07;;;15.60;99.90;;;;;;4950261;28;20210;-77
2021/05/08 07:50:37;;;;;;;9.00;8.23;;;16.00;99.90;;;;;;4949729;28;20225;-78
2021/05/08 07:53:04;;;;;;;9.13;8.33;;;16.00;99.90;;;;;;4937498;29;20210;-76
2021/05/08 07:55:32;;;;;;;9.03;8.30;;;15.90;99.90;;;;;;4960690;28;20210;-75
2021/05/08 07:57:58;;;;;;;9.00;8.20;;;16.00;99.90;;;;;;4939140;29;20241;-76
2021/05/08 08:00:25;;;;;;;9.17;8.47;;;16.20;99.90;;;;;;4935238;29;20233;-77
2021/05/08 08:02:51;;;;;;;9.90;9.00;;;16.40;99.90;;;;;;4938085;29;20228;-76
2021/05/08 08:05:19;;;;;;;8.90;8.20;;;16.70;99.90;;;;;;4951555;28;20227;-76
2021/05/08 08:07:45;;;;;;;8.70;8.00;;;17.00;99.90;;;;;;4938381;29;20213;-77
2021/05/08 08:10:12;;;;;;;9.20;8.50;;;17.20;99.90;;;;;;4947594;28;20226;-77
2021/05/08 08:12:40;;;;;;;9.87;9.07;;;17.30;99.90;;;;;;4933666;29;20206;-75
2021/05/08 08:15:08;;;;;;;6.20;5.30;;;17.30;99.90;;;;;;4934665;29;20205;-76
2021/05/08 08:17:35;;;;;;;9.70;8.80;;;17.20;99.90;;;;;;4941462;28;20201;-78
2021/05/08 08:20:02;;;;;;;9.43;8.60;;;17.50;99.90;;;;;;4933631;29;20696;-75
2021/05/08 08:22:29;;;;;;;9.27;8.67;;;17.70;99.90;;;;;;4960762;28;20649;-75
2021/05/08 08:24:56;;;;;;;8.90;8.30;;;18.00;99.90;;;;;;4945038;29;20285;-75
2021/05/08 08:27:22;;;;;;;9.13;8.40;;;18.30;99.90;;;;;;4957159;28;20203;-76
2021/05/08 08:29:49;;;;;;;8.70;8.00;;;18.70;99.90;;;;;;4935013;29;20219;-76
2021/05/08 08:32:16;;;;;;;8.20;7.50;;;18.90;99.90;;;;;;4939434;29;20576;-77
2021/05/08 08:34:42;;;;;;;8.73;7.93;;;19.20;99.90;;;;;;4933485;29;20192;-77
2021/05/08 08:37:09;;;;;;;8.77;8.00;;;19.00;99.90;;;;;;4936991;29;20440;-77
2021/05/08 08:39:35;;;;;;;8.37;7.77;;;19.10;99.90;;;;;;4936796;29;20251;-76
2021/05/08 08:42:03;;;;;;;8.60;8.00;;;19.30;99.90;;;;;;4933436;29;20197;-77
2021/05/08 08:44:29;;;;;;;9.17;8.40;;;19.70;99.90;;;;;;4944087;28;20224;-76
2021/05/08 08:46:56;;;;;;;8.73;7.93;;;19.70;99.30;;;;;;4948765;28;20276;-76
2021/05/08 08:49:23;;;;;;;8.67;8.07;;;19.80;99.80;;;;;;4936195;29;20200;-76
2021/05/08 08:51:50;;;;;;;8.37;7.67;;;20.10;99.30;;;;;;4939972;29;20254;-77
2021/05/08 08:54:16;;;;;;;8.20;7.53;;;20.00;97.30;;;;;;4937267;29;20293;-77
2021/05/08 08:56:45;;;;;;;7.60;7.10;;;19.80;98.10;;;;;;4950468;28;20261;-77
2021/05/08 08:59:17;;;;;;;7.77;7.27;;;20.30;97.80;;;;;;4934779;29;20307;-77
2021/05/08 09:01:46;;;;;;;8.30;7.60;;;20.70;96.80;;;;;;4934883;29;20568;-78
2021/05/08 09:04:14;;;;;;;7.30;6.80;;;20.50;97.10;;;;;;4935769;28;20801;-77
2021/05/08 09:06:42;;;;;;;8.93;8.23;;;20.70;96.20;;;;;;4946775;29;20663;-77
2021/05/08 09:09:09;;;;;;;8.53;7.83;;;20.70;94.60;;;;;;4933550;29;20201;-76
2021/05/08 09:11:46;;;;;;;8.07;7.50;;;20.40;94.20;;;;;;4936138;29;20205;-77
2021/05/08 09:14:19;;;;;;;7.60;7.10;;;20.00;93.80;;;;;;4936330;29;20282;-77
2021/05/08 09:17:03;;;;;;;8.97;8.20;;;20.10;93.50;;;;;;4947505;29;20211;-76
2021/05/08 09:19:32;;;;;;;7.43;6.93;;;20.40;94.90;;;;;;4934737;29;20215;-76
2021/05/08 09:21:59;;;;;;;8.23;7.53;;;20.00;93.80;;;;;;4935350;29;20212;-77
2021/05/08 09:24:25;;;;;;;7.73;7.23;;;20.10;92.60;;;;;;4936755;29;20218;-77
2021/05/08 09:26:53;;;;;;;7.53;7.07;;;20.30;93.20;;;;;;4936640;29;20216;-77
2021/05/08 09:29:23;;;;;;;7.60;7.20;;;20.80;92.70;;;;;;4944388;28;20641;-80
2021/05/08 09:31:53;;;;;;;7.10;6.70;;;20.90;92.30;;;;;;4962074;28;20207;-77
2021/05/08 09:34:20;;;;;;;7.53;6.93;;;20.30;91.20;;;;;;4964182;28;20206;-77
2021/05/08 09:36:50;;;;;;;6.87;6.27;;;19.80;91.50;;;;;;4946830;29;20220;-77
2021/05/08 09:39:31;;;;;;;6.83;6.23;;;19.70;93.10;;;;;;4943924;29;20202;-78
2021/05/08 09:41:57;;;;;;;7.17;6.67;;;19.90;93.00;;;;;;4939251;29;20209;-77
2021/05/08 09:44:23;;;;;;;6.90;6.37;;;20.10;92.90;;;;;;4946476;29;20229;-76
2021/05/08 09:46:51;;;;;;;6.63;6.23;;;20.40;92.20;;;;;;4951196;29;20206;-77
2021/05/08 09:49:20;;;;;;;6.47;6.07;;;20.40;92.00;;;;;;4964238;28;20749;-76
2021/05/08 09:51:56;;;;;;;6.73;6.30;;;20.30;91.80;;;;;;4942677;29;20250;-75
2021/05/08 09:54:24;;;;;;;6.80;6.30;;;20.10;90.30;;;;;;4966952;28;20213;-76
2021/05/08 09:56:51;;;;;;;6.03;5.73;;;20.10;91.30;;;;;;4947700;29;20206;-76
2021/05/08 09:59:26;;;;;;;6.27;5.90;;;20.50;91.10;;;;;;4950936;28;20287;-74
2021/05/08 10:02:14;;;;;;;6.23;5.83;;;20.70;91.50;;;;;;4941450;29;20230;-74
2021/05/08 10:04:44;;;;;;;6.50;6.10;;;20.90;90.80;;;;;;4946354;29;20253;-74
2021/05/08 10:07:12;;;;;;;6.67;6.20;;;20.90;89.10;;;;;;4935935;29;20295;-76
2021/05/08 10:09:41;;;;;;;6.30;6.00;;;20.80;90.40;;;;;;4944579;29;20250;-76
2021/05/08 10:12:09;;;;;;;6.37;5.97;;;20.90;90.30;;;;;;4949120;29;20206;-77
2021/05/08 10:14:36;;;;;;;6.30;5.90;;;21.00;90.30;;;;;;4953399;29;20249;-74
2021/05/08 10:17:03;;;;;;;5.90;5.60;;;21.00;90.20;;;;;;4950052;29;20271;-74
2021/05/08 10:19:32;;;;;;;6.90;6.50;;;20.90;89.60;;;;;;4944991;29;20223;-76
2021/05/08 10:22:02;;;;;;;6.90;6.30;;;20.80;89.70;;;;;;4948967;29;20203;-76
2021/05/08 10:24:29;;;;;;;6.40;6.00;;;20.80;90.10;;;;;;4945308;28;20328;-76
2021/05/08 10:26:57;;;;;;;6.50;5.90;;;20.70;90.10;;;;;;4964279;28;20214;-76
2021/05/08 10:29:26;;;;;;;6.30;5.70;;;20.50;90.70;;;;;;4948197;29;20711;-76
2021/05/08 10:31:53;;;;;;;6.20;5.90;;;20.20;90.20;;;;;;4941412;29;20202;-76
2021/05/08 10:34:30;;;;;;;6.60;6.20;;;20.20;90.80;;;;;;4952266;29;20233;-76
2021/05/08 10:37:05;;;;;;;7.33;6.93;;;20.00;90.90;;;;;;4947579;29;20569;-74
2021/05/08 10:39:47;;;;;;;3.63;2.80;;;20.00;90.10;;;;;;4961974;28;20234;-76
2021/05/08 10:42:33;;;;;;;3.03;2.83;;;19.80;90.90;;;;;;4935601;29;20701;-76
2021/05/08 10:45:00;;;;;;;7.00;6.60;;;19.80;90.80;;;;;;4946102;29;20220;-76
2021/05/08 10:48:10;;;;;;;4.07;3.30;;;19.60;90.00;;;;;;4954745;28;20299;-76
2021/05/08 10:50:41;;;;;;;2.40;2.20;;;19.40;90.40;;;;;;4945690;28;20601;-76
2021/05/08 10:53:09;;;;;;;3.13;2.80;;;19.50;91.80;;;;;;4957439;28;20293;-76
2021/05/08 10:55:47;;;;;;;2.90;2.70;;;19.70;92.20;;;;;;4950010;29;20215;-76
2021/05/08 10:58:34;;;;;;;5.00;4.57;;;19.90;91.90;;;;;;4960329;28;20207;-76
2021/05/08 11:01:04;;;;;;;6.73;6.13;;;19.90;91.70;;;;;;4999740;23;20232;-76
2021/05/08 11:03:31;;;;;;;3.03;2.73;;;20.00;90.90;;;;;;4986058;28;20732;-78
2021/05/08 11:06:00;;;;;;;2.70;2.50;;;20.20;91.00;;;;;;4974007;28;20212;-77
2021/05/08 11:08:46;;;;;;;5.47;5.03;;;20.30;90.70;;;;;;4989457;28;20271;-77
2021/05/08 11:11:16;;;;;;;4.77;3.00;;;20.20;90.80;;;;;;4987000;28;20251;-78
2021/05/08 11:13:53;;;;;;;7.67;7.00;;;20.60;91.10;;;;;;4987343;28;20203;-77
2021/05/08 11:16:21;;;;;;;9.23;8.73;;;21.10;88.90;;;;;;4959288;28;20230;-77
2021/05/08 11:18:48;;;;;;;8.97;8.27;;;21.00;89.80;;;;;;4967836;28;20287;-77
2021/05/08 11:21:51;;;;;;;7.43;6.93;;;20.80;89.90;;;;;;4975011;28;20228;-77
2021/05/08 11:24:50;;;;;;;6.60;6.20;;;21.00;90.40;;;;;;4963007;28;20577;-77
2021/05/08 11:27:27;;;;;;;6.53;6.13;;;21.00;89.20;;;;;;4915695;29;20223;-77
2021/05/08 11:30:07;;;;;;;6.77;6.17;;;20.90;87.80;;;;;;4973935;28;20228;-77
2021/05/08 11:32:45;;;;;;;6.50;6.00;;;20.50;86.50;;;;;;4968910;28;20236;-77
2021/05/08 11:35:11;;;;;;;6.40;5.90;;;20.20;88.40;;;;;;4959530;28;20286;-77
2021/05/08 11:37:38;;;;;;;4.23;3.50;;;20.10;88.30;;;;;;4984368;28;20210;-76
2021/05/08 11:40:05;;;;;;;4.00;3.70;;;20.00;90.30;;;;;;4960404;28;20233;-77
2021/05/08 11:42:32;;;;;;;3.50;3.20;;;20.10;89.00;;;;;;4954905;28;20689;-79
2021/05/08 11:45:00;;;;;;;9.53;8.93;;;19.90;89.30;;;;;;4966609;28;20329;-79
2021/05/08 11:47:27;;;;;;;6.07;5.67;;;19.60;90.70;;;;;;4965180;28;20206;-79
2021/05/08 11:49:59;;;;;;;6.03;5.53;;;20.00;89.90;;;;;;4970203;28;20831;-79
2021/05/08 11:52:33;;;;;;;7.83;7.23;;;19.90;87.80;;;;;;4944870;28;20205;-78
2021/05/08 11:54:59;;;;;;;7.27;6.77;;;20.00;89.20;;;;;;4966029;28;20193;-79
2021/05/08 11:57:26;;;;;;;5.77;5.37;;;20.30;90.00;;;;;;4977448;28;20205;-79
2021/05/08 11:59:53;;;;;;;6.50;6.00;;;20.50;89.90;;;;;;4989848;28;20236;-77
2021/05/08 12:02:21;;;;;;;6.20;5.80;;;20.60;86.50;;;;;;4982783;28;20326;-78
2021/05/08 12:04:50;;;;;;;6.20;5.80;;;20.50;86.50;;;;;;4965789;28;20240;-78
2021/05/08 12:07:20;;;;;;;5.90;5.50;;;20.50;89.20;;;;;;4988416;28;20203;-78
2021/05/08 12:09:47;;;;;;;6.00;5.60;;;20.60;88.30;;;;;;4982101;28;20214;-77
2021/05/08 12:12:13;;;;;;;6.10;5.70;;;20.60;86.50;;;;;;4990807;28;20208;-77
2021/05/08 12:14:41;;;;;;;5.80;5.50;;;20.80;88.10;;;;;;4980365;28;20194;-77
2021/05/08 12:17:09;;;;;;;6.07;5.57;;;20.70;87.40;;;;;;4995471;28;20196;-77
2021/05/08 12:19:37;;;;;;;5.90;5.50;;;20.90;88.90;;;;;;4982206;28;20709;-77
2021/05/08 12:22:04;;;;;;;6.00;5.60;;;21.00;86.80;;;;;;4971984;28;20622;-77
2021/05/08 12:24:31;;;;;;;5.90;5.50;;;20.90;86.50;;;;;;4989004;28;20664;-78
2021/05/08 12:26:57;;;;;;;5.70;5.30;;;20.80;86.90;;;;;;4988483;28;20208;-78
2021/05/08 12:29:23;;;;;;;6.07;5.67;;;21.10;85.40;;;;;;4969425;28;20201;-77
2021/05/08 12:31:50;;;;;;;6.00;5.60;;;21.00;86.60;;;;;;4987908;28;20714;-77
2021/05/08 12:34:19;;;;;;;5.83;5.43;;;21.00;86.20;;;;;;4958039;28;20208;-77
2021/05/08 12:37:03;;;;;;;5.90;5.50;;;21.10;86.60;;;;;;4988284;28;20650;-77
2021/05/08 12:39:30;;;;;;;5.93;5.50;;;21.40;86.50;;;;;;4971616;28;20209;-77
2021/05/08 12:41:58;;;;;;;5.43;5.13;;;21.60;86.00;;;;;;4983704;28;20222;-78
2021/05/08 12:44:29;;;;;;;5.70;5.30;;;21.70;84.70;;;;;;4974421;28;20718;-77
2021/05/08 12:46:58;;;;;;;6.37;5.97;;;21.50;83.70;;;;;;4974783;28;20199;-78
2021/05/08 12:49:26;;;;;;;5.90;5.43;;;21.40;85.90;;;;;;4982979;28;20777;-77
2021/05/08 12:51:53;;;;;;;6.07;5.67;;;21.30;85.60;;;;;;4988375;28;20273;-78
2021/05/08 12:54:26;;;;;;;6.00;5.50;;;21.30;85.50;;;;;;4968726;28;20208;-78